createdAt,value
2017-07-20T00:00:17.554Z,4.20
2017-07-20T00:02:48.749Z,4.80
2017-07-20T00:05:18.502Z,4.37
2017-07-20T00:07:48.436Z,4.90
2017-07-20T00:10:18.239Z,5.10
2017-07-20T00:12:48.060Z,5.40
2017-07-20T00:15:18.600Z,5.40
2017-07-20T00:17:48.404Z,7.30
2017-07-20T00:20:18.219Z,6.47
2017-07-20T00:22:48.035Z,6.30
2017-07-20T00:25:17.856Z,5.50
2017-07-20T00:27:47.644Z,5.97
2017-07-20T00:30:17.597Z,5.57
2017-07-20T00:32:47.444Z,5.70
2017-07-20T00:35:17.282Z,6.33
2017-07-20T00:37:47.863Z,5.40
2017-07-20T00:40:17.651Z,7.43
2017-07-20T00:42:48.889Z,6.13
2017-07-20T00:45:19.473Z,6.53
2017-07-20T00:47:49.895Z,5.70
2017-07-20T00:50:19.684Z,5.60
2017-07-20T00:52:49.958Z,6.40
2017-07-20T00:55:19.840Z,6.20
2017-07-20T00:57:49.780Z,6.63
2017-07-20T01:00:19.675Z,6.63
2017-07-20T01:02:49.505Z,6.10
2017-07-20T01:05:21.908Z,6.37
2017-07-20T01:07:51.897Z,7.00
2017-07-20T01:10:21.702Z,6.50
2017-07-20T01:12:52.379Z,6.00
2017-07-20T01:15:22.369Z,5.53
2017-07-20T01:17:52.180Z,6.90
2017-07-20T01:20:21.701Z,6.10
2017-07-20T01:22:52.126Z,5.60
2017-07-20T01:25:22.262Z,5.87
2017-07-20T01:27:51.995Z,5.50
2017-07-20T01:30:22.802Z,5.80
2017-07-20T01:32:52.300Z,6.20
2017-07-20T01:35:22.779Z,5.63
2017-07-20T01:37:53.273Z,5.27
2017-07-20T01:40:24.113Z,5.27
2017-07-20T01:42:53.916Z,5.20
2017-07-20T01:45:23.327Z,5.57
2017-07-20T01:47:52.945Z,6.47
2017-07-20T01:50:22.717Z,6.10
2017-07-20T01:52:52.523Z,6.10
2017-07-20T01:55:22.381Z,6.50
2017-07-20T01:57:52.221Z,5.97
2017-07-20T02:00:21.326Z,6.30
2017-07-20T02:02:51.016Z,6.77
2017-07-20T02:05:21.168Z,6.23
2017-07-20T02:07:51.268Z,5.77
2017-07-20T02:10:22.824Z,6.20
2017-07-20T02:12:52.620Z,6.43
2017-07-20T02:15:23.605Z,5.83
2017-07-20T02:17:53.494Z,6.13
2017-07-20T02:20:23.243Z,6.20
2017-07-20T02:22:53.120Z,6.60
2017-07-20T02:25:22.936Z,5.70
2017-07-20T02:27:52.866Z,6.00
2017-07-20T02:30:22.677Z,6.53
2017-07-20T02:32:53.228Z,6.30
2017-07-20T02:35:23.133Z,5.70
2017-07-20T02:37:52.935Z,5.53
2017-07-20T02:40:22.632Z,5.40
2017-07-20T02:42:52.508Z,5.20
2017-07-20T02:45:22.116Z,5.67
2017-07-20T02:47:51.929Z,5.63
2017-07-20T02:50:21.689Z,5.20
2017-07-20T02:52:51.424Z,5.70
2017-07-20T02:55:21.141Z,6.00
2017-07-20T02:57:50.831Z,5.67
2017-07-20T03:00:20.810Z,5.43
2017-07-20T03:02:50.579Z,6.03
2017-07-20T03:05:20.299Z,5.33
2017-07-20T03:07:50.047Z,5.60
2017-07-20T03:10:21.155Z,4.67
2017-07-20T03:12:50.862Z,5.30
2017-07-20T03:15:20.586Z,5.17
2017-07-20T03:17:50.398Z,5.67
2017-07-20T03:20:20.277Z,5.20
2017-07-20T03:22:50.039Z,4.90
2017-07-20T03:25:19.879Z,5.23
2017-07-20T03:27:49.709Z,4.57
2017-07-20T03:30:20.254Z,4.77
2017-07-20T03:32:50.014Z,5.10
2017-07-20T03:35:19.726Z,4.20
2017-07-20T03:37:49.466Z,5.33
2017-07-20T03:40:19.122Z,5.77
2017-07-20T03:42:48.909Z,5.47
2017-07-20T03:45:18.698Z,5.10
2017-07-20T03:47:48.411Z,5.20
2017-07-20T03:50:18.247Z,4.37
2017-07-20T03:52:48.034Z,4.30
2017-07-20T03:55:17.894Z,4.57
2017-07-20T03:57:47.656Z,4.60
2017-07-20T04:00:17.368Z,4.60
2017-07-20T04:02:47.115Z,5.40
2017-07-20T04:05:16.897Z,4.67
2017-07-20T04:07:46.619Z,5.10
2017-07-20T04:10:16.336Z,5.17
2017-07-20T04:12:46.100Z,5.43
2017-07-20T04:15:15.862Z,5.70
2017-07-20T04:17:46.423Z,4.70
2017-07-20T04:20:16.108Z,4.70
2017-07-20T04:22:45.822Z,4.23
2017-07-20T04:25:16.340Z,5.13
2017-07-20T04:27:46.420Z,5.03
2017-07-20T04:30:16.231Z,4.93
2017-07-20T04:32:46.012Z,4.50
2017-07-20T04:35:15.722Z,4.27
2017-07-20T04:37:45.458Z,4.63
2017-07-20T04:40:15.247Z,5.40
2017-07-20T04:42:44.984Z,5.40
2017-07-20T04:45:14.786Z,4.87
2017-07-20T04:47:44.472Z,5.10
2017-07-20T04:50:14.239Z,4.93
2017-07-20T04:52:44.921Z,4.73
2017-07-20T04:55:14.681Z,5.20
2017-07-20T04:57:44.440Z,5.30
2017-07-20T05:00:14.171Z,5.67
2017-07-20T05:02:43.942Z,5.43
2017-07-20T05:05:13.721Z,5.73
2017-07-20T05:07:43.487Z,5.40
2017-07-20T05:10:13.252Z,5.90
2017-07-20T05:12:42.957Z,6.57
2017-07-20T05:15:12.678Z,6.70
2017-07-20T05:17:42.491Z,6.00
2017-07-20T05:20:12.211Z,6.27
2017-07-20T05:22:42.018Z,6.50
2017-07-20T05:25:11.734Z,6.97
2017-07-20T05:27:41.563Z,6.10
2017-07-20T05:30:11.366Z,6.27
2017-07-20T05:32:41.126Z,6.77
2017-07-20T05:35:10.747Z,6.03
2017-07-20T05:37:40.302Z,5.93
2017-07-20T05:40:09.858Z,6.43
2017-07-20T05:42:39.436Z,5.53
2017-07-20T05:45:09.084Z,7.60
2017-07-20T05:47:38.842Z,6.37
2017-07-20T05:50:09.185Z,5.60
2017-07-20T05:52:38.994Z,4.80
2017-07-20T05:55:08.742Z,5.77
2017-07-20T05:57:39.410Z,5.27
2017-07-20T06:00:09.127Z,5.00
2017-07-20T06:02:38.882Z,5.50
2017-07-20T06:05:08.711Z,5.00
2017-07-20T06:07:39.256Z,5.70
2017-07-20T06:10:09.744Z,4.70
2017-07-20T06:12:40.387Z,5.00
2017-07-20T06:15:10.104Z,5.40
2017-07-20T06:17:39.819Z,4.87
2017-07-20T06:20:09.650Z,5.20
2017-07-20T06:22:39.446Z,4.50
2017-07-20T06:25:09.209Z,4.97
2017-07-20T06:27:38.973Z,4.90
2017-07-20T06:30:08.697Z,5.57
2017-07-20T06:32:38.413Z,4.90
2017-07-20T06:35:08.147Z,5.47
2017-07-20T06:37:38.526Z,4.90
2017-07-20T06:40:08.242Z,5.53
2017-07-20T06:42:37.958Z,4.87
2017-07-20T06:45:07.721Z,5.27
2017-07-20T06:47:38.240Z,5.27
2017-07-20T06:50:08.069Z,5.13
2017-07-20T06:52:37.876Z,5.30
2017-07-20T06:55:07.675Z,5.10
2017-07-20T06:57:37.488Z,5.40
2017-07-20T07:00:07.170Z,6.00
2017-07-20T07:02:36.942Z,5.23
2017-07-20T07:05:06.769Z,5.07
2017-07-20T07:07:36.554Z,5.20
2017-07-20T07:10:06.383Z,5.30
2017-07-20T07:12:36.174Z,5.73
2017-07-20T07:15:05.951Z,5.57
2017-07-20T07:17:35.698Z,5.60
2017-07-20T07:20:05.434Z,5.17
2017-07-20T07:22:35.181Z,5.67
2017-07-20T07:25:04.935Z,4.93
2017-07-20T07:27:34.736Z,5.57
2017-07-20T07:30:04.478Z,4.97
2017-07-20T07:32:34.267Z,5.13
2017-07-20T07:35:04.038Z,5.20
2017-07-20T07:37:33.825Z,5.33
2017-07-20T07:40:03.570Z,5.93
2017-07-20T07:42:33.350Z,5.20
2017-07-20T07:45:03.101Z,5.20
2017-07-20T07:47:32.854Z,4.50
2017-07-20T07:50:03.214Z,5.10
2017-07-20T07:52:32.963Z,5.20
2017-07-20T07:55:03.247Z,5.00
2017-07-20T07:57:33.013Z,5.63
2017-07-20T08:00:02.782Z,5.37
2017-07-20T08:02:32.486Z,5.90
2017-07-20T08:05:02.234Z,5.00
2017-07-20T08:07:32.018Z,5.63
2017-07-20T08:10:01.808Z,5.73
2017-07-20T08:12:32.270Z,5.50
2017-07-20T08:15:02.017Z,5.53
2017-07-20T08:17:31.798Z,5.60
2017-07-20T08:20:01.507Z,4.90
2017-07-20T08:22:39.746Z,6.13
2017-07-20T08:25:10.051Z,5.10
2017-07-20T08:27:39.800Z,4.83
2017-07-20T08:30:09.591Z,5.20
2017-07-20T08:32:39.366Z,4.90
2017-07-20T08:35:09.124Z,4.93
2017-07-20T08:37:38.926Z,5.77
2017-07-20T08:40:08.667Z,5.60
2017-07-20T08:42:38.434Z,5.93
2017-07-20T08:45:08.182Z,5.30
2017-07-20T08:47:38.006Z,5.50
2017-07-20T08:50:07.696Z,5.80
2017-07-20T08:52:37.451Z,5.63
2017-07-20T08:55:07.223Z,5.47
2017-07-20T08:57:36.915Z,5.20
2017-07-20T09:00:06.663Z,5.63
2017-07-20T09:02:36.951Z,5.50
2017-07-20T09:05:07.415Z,5.67
2017-07-20T09:07:37.100Z,6.40
2017-07-20T09:10:06.813Z,6.47
2017-07-20T09:12:36.564Z,5.20
2017-07-20T09:15:06.243Z,5.60
2017-07-20T09:17:36.189Z,5.40
2017-07-20T09:20:05.921Z,5.93
2017-07-20T09:22:35.709Z,5.47
2017-07-20T09:25:05.469Z,6.13
2017-07-20T09:27:35.248Z,5.20
2017-07-20T09:30:05.039Z,5.47
2017-07-20T09:32:34.750Z,5.40
2017-07-20T09:35:04.511Z,5.77
2017-07-20T09:37:34.309Z,5.60
2017-07-20T09:40:03.994Z,6.00
2017-07-20T09:42:33.796Z,5.80
2017-07-20T09:45:14.753Z,5.30
2017-07-20T09:47:44.559Z,5.27
2017-07-20T09:50:14.333Z,5.70
2017-07-20T09:52:44.087Z,5.00
2017-07-20T09:55:13.882Z,5.50
2017-07-20T09:57:43.783Z,5.07
2017-07-20T10:00:13.541Z,5.20
2017-07-20T10:02:43.417Z,5.20
2017-07-20T10:05:13.107Z,4.97
2017-07-20T10:07:42.938Z,5.27
2017-07-20T10:10:12.665Z,5.57
2017-07-20T10:12:42.505Z,5.30
2017-07-20T10:15:12.267Z,5.70
2017-07-20T10:17:41.988Z,5.27
2017-07-20T10:20:11.737Z,4.90
2017-07-20T10:22:41.637Z,5.83
2017-07-20T10:25:11.402Z,4.83
2017-07-20T10:27:41.162Z,5.17
2017-07-20T10:30:10.852Z,5.27
2017-07-20T10:32:41.312Z,6.10
2017-07-20T10:35:11.010Z,5.80
2017-07-20T10:37:40.748Z,4.90
2017-07-20T10:40:10.448Z,5.40
2017-07-20T10:42:40.162Z,5.60
2017-07-20T10:45:09.893Z,5.80
2017-07-20T10:47:42.864Z,5.67
2017-07-20T10:50:14.532Z,7.00
2017-07-20T10:52:44.245Z,6.33
2017-07-20T10:55:14.037Z,5.60
2017-07-20T10:57:44.687Z,4.97
2017-07-20T11:00:14.416Z,5.87
2017-07-20T11:02:44.242Z,5.90
2017-07-20T11:05:14.040Z,5.43
2017-07-20T11:07:43.830Z,5.70
2017-07-20T11:10:13.587Z,5.43
2017-07-20T11:12:43.451Z,5.50
2017-07-20T11:15:13.267Z,5.83
2017-07-20T11:17:43.086Z,4.90
2017-07-20T11:20:12.822Z,5.07
2017-07-20T11:22:42.649Z,4.90
2017-07-20T11:25:12.339Z,5.80
2017-07-20T11:27:42.115Z,5.30
2017-07-20T11:30:11.987Z,5.30
2017-07-20T11:32:41.696Z,5.30
2017-07-20T11:35:11.441Z,5.57
2017-07-20T11:37:41.114Z,5.80
2017-07-20T11:40:10.897Z,5.50
2017-07-20T11:42:40.641Z,5.23
2017-07-20T11:45:10.350Z,5.33
2017-07-20T11:47:40.110Z,5.30
2017-07-20T11:50:09.870Z,4.90
2017-07-20T11:52:39.650Z,4.70
2017-07-20T11:55:09.432Z,5.30
2017-07-20T11:57:39.249Z,6.33
2017-07-20T12:00:08.962Z,6.23
2017-07-20T12:02:38.675Z,5.03
2017-07-20T12:05:08.454Z,6.40
2017-07-20T12:07:38.209Z,5.87
2017-07-20T12:10:07.918Z,5.10
2017-07-20T12:12:37.666Z,5.40
2017-07-20T12:15:07.462Z,6.00
2017-07-20T12:17:37.294Z,5.60
2017-07-20T12:20:07.102Z,5.73
2017-07-20T12:22:36.798Z,5.73
2017-07-20T12:25:06.509Z,5.43
2017-07-20T12:27:36.222Z,6.00
2017-07-20T12:30:05.974Z,5.77
2017-07-20T12:32:35.741Z,6.00
2017-07-20T12:35:05.466Z,5.83
2017-07-20T12:37:35.195Z,5.73
2017-07-20T12:40:04.633Z,5.53
2017-07-20T12:42:34.482Z,5.60
2017-07-20T12:45:04.247Z,5.57
2017-07-20T12:47:34.036Z,5.37
2017-07-20T12:50:03.755Z,5.73
2017-07-20T12:52:38.860Z,4.90
2017-07-20T12:55:12.154Z,6.00
2017-07-20T12:57:41.870Z,6.50
2017-07-20T13:00:11.585Z,5.83
2017-07-20T13:02:41.445Z,5.40
2017-07-20T13:05:11.215Z,5.60
2017-07-20T13:07:41.609Z,5.40
2017-07-20T13:10:11.384Z,5.40
2017-07-20T13:12:41.101Z,6.23
2017-07-20T13:15:10.846Z,6.70
2017-07-20T13:17:40.629Z,6.27
2017-07-20T13:20:10.378Z,5.27
2017-07-20T13:22:40.163Z,5.53
2017-07-20T13:25:09.973Z,5.27
2017-07-20T13:27:39.702Z,5.07
2017-07-20T13:30:09.402Z,5.03
2017-07-20T13:32:39.164Z,5.70
2017-07-20T13:35:11.890Z,4.87
2017-07-20T13:37:41.664Z,4.77
2017-07-20T13:40:11.434Z,5.00
2017-07-20T13:42:41.150Z,4.90
2017-07-20T13:45:10.862Z,4.90
2017-07-20T13:47:40.538Z,6.60
2017-07-20T13:50:10.344Z,5.50
2017-07-20T13:52:40.094Z,6.50
2017-07-20T13:55:09.811Z,5.97
2017-07-20T13:57:39.657Z,6.20
2017-07-20T14:00:09.430Z,6.43
2017-07-20T14:02:39.198Z,6.23
2017-07-20T14:05:09.529Z,5.10
2017-07-20T14:07:39.289Z,5.63
2017-07-20T14:10:09.025Z,6.80
2017-07-20T14:12:38.729Z,5.90
2017-07-20T14:15:08.477Z,5.70
2017-07-20T14:17:38.258Z,5.60
2017-07-20T14:20:08.134Z,6.70
2017-07-20T14:22:37.830Z,5.50
2017-07-20T14:25:07.610Z,5.67
2017-07-20T14:27:37.374Z,5.60
2017-07-20T14:30:07.848Z,6.40
2017-07-20T14:32:37.684Z,6.50
2017-07-20T14:35:07.454Z,7.07
2017-07-20T14:37:40.165Z,6.03
2017-07-20T14:40:09.834Z,6.67
2017-07-20T14:42:39.617Z,6.40
2017-07-20T14:45:09.438Z,6.80
2017-07-20T14:47:39.202Z,6.63
2017-07-20T14:50:08.988Z,5.70
2017-07-20T14:52:38.861Z,5.23
2017-07-20T14:55:08.606Z,5.90
2017-07-20T14:57:38.407Z,5.40
2017-07-20T15:00:08.200Z,5.07
2017-07-20T15:02:37.960Z,4.10
2017-07-20T15:05:07.726Z,4.50
2017-07-20T15:07:37.481Z,4.87
2017-07-20T15:10:07.265Z,4.43
2017-07-20T15:12:36.973Z,4.17
2017-07-20T15:15:06.815Z,4.27
2017-07-20T15:17:36.609Z,4.67
2017-07-20T15:20:06.349Z,4.10
2017-07-20T15:22:36.118Z,3.50
2017-07-20T15:25:05.846Z,4.10
2017-07-20T15:27:35.555Z,4.20
2017-07-20T15:30:05.277Z,3.80
2017-07-20T15:32:35.630Z,4.03
2017-07-20T15:35:05.423Z,4.37
2017-07-20T15:37:35.150Z,4.47
2017-07-20T15:40:05.998Z,4.73
2017-07-20T15:42:38.275Z,4.63
2017-07-20T15:45:08.727Z,4.60
2017-07-20T15:47:38.465Z,4.97
2017-07-20T15:50:08.255Z,4.90
2017-07-20T15:52:38.019Z,5.30
2017-07-20T15:55:07.711Z,5.47
2017-07-20T15:57:37.477Z,4.90
2017-07-20T16:00:07.779Z,5.40
2017-07-20T16:02:37.533Z,4.53
2017-07-20T16:05:08.014Z,5.10
2017-07-20T16:07:37.749Z,5.70
2017-07-20T16:10:07.368Z,5.40
2017-07-20T16:12:37.075Z,5.63
2017-07-20T16:15:06.881Z,6.33
2017-07-20T16:17:36.594Z,5.80
2017-07-20T16:20:06.312Z,6.60
2017-07-20T16:22:36.004Z,5.60
2017-07-20T16:25:05.746Z,6.03
2017-07-20T16:27:35.583Z,6.30
2017-07-20T16:30:05.371Z,6.60
2017-07-20T16:32:35.188Z,6.60
2017-07-20T16:35:04.882Z,5.20
2017-07-20T16:37:34.614Z,6.67
2017-07-20T16:40:04.375Z,6.70
2017-07-20T16:42:40.996Z,5.87
2017-07-20T16:45:10.750Z,6.47
2017-07-20T16:47:40.502Z,6.07
2017-07-20T16:50:10.238Z,7.73
2017-07-20T16:52:40.098Z,6.93
2017-07-20T16:55:09.876Z,7.27
2017-07-20T16:57:39.629Z,6.87
2017-07-20T17:00:09.405Z,7.50
2017-07-20T17:02:39.104Z,7.10
2017-07-20T17:05:08.822Z,7.00
2017-07-20T17:07:38.547Z,8.13
2017-07-20T17:10:08.374Z,7.20
2017-07-20T17:12:38.159Z,6.90
2017-07-20T17:15:07.914Z,6.57
2017-07-20T17:17:37.710Z,6.80
2017-07-20T17:20:07.528Z,6.30
2017-07-20T17:22:37.371Z,7.40
2017-07-20T17:25:07.150Z,7.30
2017-07-20T17:27:36.905Z,7.33
2017-07-20T17:30:06.707Z,6.80
2017-07-20T17:32:36.521Z,7.27
2017-07-20T17:35:06.348Z,6.77
2017-07-20T17:37:36.130Z,6.53
2017-07-20T17:40:05.840Z,7.07
2017-07-20T17:42:35.581Z,6.43
2017-07-20T17:45:05.386Z,7.10
2017-07-20T17:47:35.218Z,6.83
2017-07-20T17:50:05.014Z,6.77
2017-07-20T17:52:34.834Z,7.00
2017-07-20T17:55:04.676Z,7.30
2017-07-20T17:57:34.487Z,6.87
2017-07-20T18:00:03.759Z,7.30
2017-07-20T18:02:33.562Z,7.43
2017-07-20T18:05:03.314Z,6.80
2017-07-20T18:07:33.818Z,6.30
2017-07-20T18:10:03.544Z,8.07
2017-07-20T18:12:35.583Z,7.43
2017-07-20T18:15:07.218Z,8.40
2017-07-20T18:17:37.642Z,7.67
2017-07-20T18:20:08.760Z,7.10
2017-07-20T18:22:38.701Z,7.97
2017-07-20T18:25:08.290Z,7.93
2017-07-20T18:27:37.874Z,7.83
2017-07-20T18:30:07.687Z,9.10
2017-07-20T18:32:37.429Z,8.03
2017-07-20T18:35:07.294Z,8.00
2017-07-20T18:37:37.037Z,8.03
2017-07-20T18:40:06.774Z,7.53
2017-07-20T18:42:37.995Z,7.57
2017-07-20T18:45:07.923Z,9.53
2017-07-20T18:47:37.842Z,7.90
2017-07-20T18:50:07.750Z,7.83
2017-07-20T18:52:37.467Z,8.60
2017-07-20T18:55:07.201Z,8.50
2017-07-20T18:57:37.006Z,8.80
2017-07-20T19:00:06.887Z,8.23
2017-07-20T19:02:37.682Z,8.23
2017-07-20T19:05:07.567Z,8.50
2017-07-20T19:07:37.284Z,7.50
2017-07-20T19:10:07.499Z,8.73
2017-07-20T19:12:37.243Z,7.67
2017-07-20T19:15:07.061Z,8.30
2017-07-20T19:17:36.906Z,7.63
2017-07-20T19:20:07.228Z,8.97
2017-07-20T19:22:37.331Z,8.03
2017-07-20T19:25:08.677Z,7.53
2017-07-20T19:27:39.799Z,7.77
2017-07-20T19:30:10.441Z,8.63
2017-07-20T19:32:43.020Z,8.33
2017-07-20T19:35:13.150Z,8.90
2017-07-20T19:37:43.014Z,7.80
2017-07-20T19:40:12.750Z,7.80
2017-07-20T19:42:42.463Z,8.87
2017-07-20T19:45:12.218Z,10.20
2017-07-20T19:47:42.006Z,8.40
2017-07-20T19:50:11.774Z,8.83
2017-07-20T19:52:41.542Z,8.20
2017-07-20T19:55:11.259Z,9.23
2017-07-20T19:57:40.974Z,8.50
2017-07-20T20:00:10.780Z,8.90
2017-07-20T20:02:40.660Z,9.50
2017-07-20T20:05:10.983Z,8.50
2017-07-20T20:07:40.863Z,9.03
2017-07-20T20:10:10.688Z,10.00
2017-07-20T20:12:40.970Z,9.40
2017-07-20T20:15:10.755Z,10.70
2017-07-20T20:17:40.520Z,11.00
2017-07-20T20:20:10.232Z,9.27
2017-07-20T20:22:39.978Z,10.20
2017-07-20T20:25:09.968Z,10.90
2017-07-20T20:27:39.678Z,8.97
2017-07-20T20:30:09.405Z,9.07
2017-07-20T20:32:42.829Z,9.93
2017-07-20T20:35:13.566Z,9.40
2017-07-20T20:37:43.394Z,8.93
2017-07-20T20:40:13.158Z,9.50
2017-07-20T20:42:42.893Z,8.37
2017-07-20T20:45:12.706Z,8.73
2017-07-20T20:47:42.482Z,8.50
2017-07-20T20:50:12.368Z,8.37
2017-07-20T20:52:43.093Z,9.30
2017-07-20T20:55:13.382Z,8.60
2017-07-20T20:57:44.307Z,7.73
2017-07-20T21:00:14.702Z,7.03
2017-07-20T21:02:45.176Z,7.87
2017-07-20T21:05:16.124Z,7.70
2017-07-20T21:07:47.500Z,8.57
2017-07-20T21:10:17.239Z,8.07
2017-07-20T21:12:47.009Z,7.47
2017-07-20T21:15:16.703Z,7.47
2017-07-20T21:17:46.466Z,8.00
2017-07-20T21:20:17.654Z,7.50
2017-07-20T21:22:48.414Z,7.13
2017-07-20T21:25:18.142Z,7.70
2017-07-20T21:27:48.364Z,7.47
2017-07-20T21:30:18.387Z,7.37
2017-07-20T21:32:48.126Z,7.77
2017-07-20T21:35:17.907Z,7.40
2017-07-20T21:37:47.626Z,8.10
2017-07-20T21:40:17.339Z,7.07
2017-07-20T21:42:47.064Z,8.40
2017-07-20T21:45:16.829Z,7.80
2017-07-20T21:47:46.562Z,6.93
2017-07-20T21:50:16.301Z,6.60
2017-07-20T21:52:46.004Z,7.00
2017-07-20T21:55:15.703Z,7.20
2017-07-20T21:57:45.431Z,6.60
2017-07-20T22:00:15.170Z,6.40
2017-07-20T22:02:45.299Z,7.40
2017-07-20T22:05:15.702Z,6.73
2017-07-20T22:07:45.402Z,6.00
2017-07-20T22:10:15.169Z,5.53
2017-07-20T22:12:44.941Z,6.13
2017-07-20T22:15:14.667Z,6.77
2017-07-20T22:17:51.818Z,7.07
2017-07-20T22:20:21.579Z,6.10
2017-07-20T22:22:51.410Z,6.27
2017-07-20T22:25:21.192Z,6.10
2017-07-20T22:27:51.007Z,5.03
2017-07-20T22:30:20.745Z,5.80
2017-07-20T22:32:50.543Z,5.80
2017-07-20T22:35:20.297Z,6.23
2017-07-20T22:37:50.074Z,6.20
2017-07-20T22:40:19.880Z,6.10
2017-07-20T22:42:49.611Z,5.93
2017-07-20T22:45:19.395Z,6.30
2017-07-20T22:47:49.153Z,6.20
2017-07-20T22:50:19.670Z,6.47
2017-07-20T22:52:49.498Z,5.97
2017-07-20T22:55:19.294Z,6.13
2017-07-20T22:57:49.359Z,6.67
2017-07-20T23:00:18.469Z,6.40
2017-07-20T23:02:48.330Z,5.83
2017-07-20T23:05:18.076Z,5.70
2017-07-20T23:07:47.867Z,6.03
2017-07-20T23:10:17.669Z,5.60
2017-07-20T23:12:47.952Z,6.10
2017-07-20T23:15:17.742Z,5.23
2017-07-20T23:17:47.559Z,5.70
2017-07-20T23:20:20.599Z,5.70
2017-07-20T23:22:50.309Z,5.83
2017-07-20T23:25:20.071Z,5.40
2017-07-20T23:27:49.968Z,5.87
2017-07-20T23:30:19.737Z,5.33
2017-07-20T23:32:49.497Z,5.53
2017-07-20T23:35:19.392Z,5.83
2017-07-20T23:37:49.332Z,5.20
2017-07-20T23:40:19.978Z,5.93
2017-07-20T23:42:49.698Z,5.90
2017-07-20T23:45:19.504Z,5.90
2017-07-20T23:47:49.238Z,6.00
2017-07-20T23:50:19.650Z,6.53
2017-07-20T23:52:49.385Z,5.90
2017-07-20T23:55:19.174Z,6.63
2017-07-20T23:57:48.703Z,6.13
